createdAt,value
2022-10-19T00:01:05.266Z,17.60
2022-10-19T00:03:33.063Z,17.60
2022-10-19T00:06:00.236Z,17.60
2022-10-19T00:08:27.392Z,17.60
2022-10-19T00:10:54.223Z,17.60
2022-10-19T00:13:21.124Z,17.50
2022-10-19T00:15:47.931Z,17.60
2022-10-19T00:18:14.793Z,17.50
2022-10-19T00:20:41.606Z,17.50
2022-10-19T00:23:08.396Z,17.50
2022-10-19T00:25:35.422Z,17.50
2022-10-19T00:28:02.302Z,17.50
2022-10-19T00:30:29.139Z,17.50
2022-10-19T00:32:55.970Z,17.50
2022-10-19T00:35:22.814Z,17.50
2022-10-19T00:37:49.644Z,17.40
2022-10-19T00:40:16.545Z,17.40
2022-10-19T00:42:43.462Z,17.40
2022-10-19T00:45:17.884Z,17.40
2022-10-19T00:47:45.520Z,17.40
2022-10-19T00:50:14.750Z,17.40
2022-10-19T00:52:42.317Z,17.40
2022-10-19T00:55:11.130Z,17.40
2022-10-19T00:57:38.274Z,17.40
2022-10-19T01:00:07.265Z,17.30
2022-10-19T01:02:35.028Z,17.30
2022-10-19T01:05:04.271Z,17.30
2022-10-19T01:07:31.520Z,17.30
2022-10-19T01:09:59.373Z,17.30
2022-10-19T01:13:07.529Z,17.30
2022-10-19T01:15:55.642Z,17.30
2022-10-19T01:18:53.734Z,17.30
2022-10-19T01:21:42.521Z,17.20
2022-10-19T01:24:27.485Z,17.20
2022-10-19T01:27:13.737Z,17.20
2022-10-19T01:30:11.221Z,17.20
2022-10-19T01:33:03.904Z,17.20
2022-10-19T01:36:05.787Z,17.20
2022-10-19T01:38:42.984Z,17.20
2022-10-19T01:41:18.855Z,17.20
2022-10-19T01:43:55.411Z,17.20
2022-10-19T01:46:30.445Z,17.20
2022-10-19T01:49:03.282Z,17.20
2022-10-19T01:51:38.636Z,17.10
2022-10-19T01:54:09.561Z,17.10
2022-10-19T01:56:39.920Z,17.10
2022-10-19T01:59:09.745Z,17.10
2022-10-19T02:01:41.027Z,17.10
2022-10-19T02:04:08.417Z,17.00
2022-10-19T02:06:36.005Z,17.10
2022-10-19T02:09:03.070Z,17.10
2022-10-19T02:11:31.519Z,17.00
2022-10-19T02:14:04.392Z,17.00
2022-10-19T02:16:40.952Z,17.00
2022-10-19T02:19:09.883Z,17.00
2022-10-19T02:21:36.831Z,17.00
2022-10-19T02:24:03.897Z,17.00
2022-10-19T02:26:30.843Z,17.00
2022-10-19T02:28:58.569Z,17.00
2022-10-19T02:31:26.383Z,17.00
2022-10-19T02:33:53.958Z,17.00
2022-10-19T02:36:20.984Z,16.90
2022-10-19T02:38:48.063Z,17.00
2022-10-19T02:41:17.089Z,17.00
2022-10-19T02:43:51.250Z,16.90
2022-10-19T02:46:28.132Z,16.90
2022-10-19T02:48:57.169Z,16.90
2022-10-19T02:51:28.155Z,16.90
2022-10-19T02:53:55.100Z,16.90
2022-10-19T02:56:21.907Z,16.90
2022-10-19T02:58:48.810Z,16.90
2022-10-19T03:01:15.671Z,16.90
2022-10-19T03:03:42.519Z,16.90
2022-10-19T03:06:09.472Z,16.90
2022-10-19T03:08:36.282Z,16.90
2022-10-19T03:11:03.171Z,16.90
2022-10-19T03:13:29.991Z,16.90
2022-10-19T03:15:56.829Z,16.90
2022-10-19T03:18:23.652Z,16.90
2022-10-19T03:20:50.458Z,16.80
2022-10-19T03:23:17.254Z,16.90
2022-10-19T03:25:44.103Z,16.90
2022-10-19T03:28:10.870Z,16.90
2022-10-19T03:30:37.681Z,16.90
2022-10-19T03:33:04.616Z,16.90
2022-10-19T03:35:31.480Z,16.90
2022-10-19T03:37:58.259Z,16.90
2022-10-19T03:40:25.143Z,16.90
2022-10-19T03:42:52.000Z,16.90
2022-10-19T03:45:18.832Z,16.90
2022-10-19T03:47:50.531Z,16.80
2022-10-19T03:50:18.423Z,16.90
2022-10-19T03:52:45.499Z,16.80
2022-10-19T03:55:12.356Z,16.80
2022-10-19T03:57:39.222Z,16.80
2022-10-19T04:00:06.894Z,16.80
2022-10-19T04:02:33.958Z,16.80
2022-10-19T04:05:00.783Z,16.80
2022-10-19T04:07:27.745Z,16.80
2022-10-19T04:09:54.607Z,16.80
2022-10-19T04:12:21.433Z,16.80
2022-10-19T04:14:58.070Z,16.80
2022-10-19T04:17:25.651Z,16.80
2022-10-19T04:19:52.457Z,16.80
2022-10-19T04:22:19.253Z,16.80
2022-10-19T04:24:46.025Z,16.80
2022-10-19T04:27:12.863Z,16.80
2022-10-19T04:29:39.670Z,16.80
2022-10-19T04:32:06.645Z,16.80
2022-10-19T04:34:36.325Z,16.80
2022-10-19T04:37:06.061Z,16.80
2022-10-19T04:39:33.459Z,16.80
2022-10-19T04:42:00.314Z,16.80
2022-10-19T04:44:27.096Z,16.80
2022-10-19T04:46:53.946Z,16.80
2022-10-19T04:49:20.877Z,16.80
2022-10-19T04:51:47.704Z,16.80
2022-10-19T04:54:14.635Z,16.80
2022-10-19T04:56:41.467Z,16.80
2022-10-19T04:59:09.616Z,16.80
2022-10-19T05:01:37.329Z,16.70
2022-10-19T05:04:04.916Z,16.80
2022-10-19T05:06:32.244Z,16.80
2022-10-19T05:08:59.930Z,16.70
2022-10-19T05:11:26.979Z,16.70
2022-10-19T05:13:53.985Z,16.70
2022-10-19T05:16:23.194Z,16.70
2022-10-19T05:18:52.015Z,16.70
2022-10-19T05:21:20.686Z,16.70
2022-10-19T05:23:50.767Z,16.70
2022-10-19T05:26:19.653Z,16.70
2022-10-19T05:29:04.868Z,16.70
2022-10-19T05:31:33.878Z,16.70
2022-10-19T05:34:01.436Z,16.70
2022-10-19T05:36:37.886Z,16.70
2022-10-19T05:39:07.848Z,16.70
2022-10-19T05:41:34.840Z,16.70
2022-10-19T05:44:03.528Z,16.70
2022-10-19T05:46:31.385Z,16.70
2022-10-19T05:48:59.108Z,16.70
2022-10-19T05:51:27.543Z,16.70
2022-10-19T05:53:55.273Z,16.70
2022-10-19T05:56:27.649Z,16.70
2022-10-19T05:58:57.211Z,16.70
2022-10-19T06:01:24.484Z,16.70
2022-10-19T06:03:53.232Z,16.70
2022-10-19T06:06:20.027Z,16.70
2022-10-19T06:08:47.531Z,16.70
2022-10-19T06:11:22.860Z,16.70
2022-10-19T06:13:51.719Z,16.70
2022-10-19T06:16:20.386Z,16.70
2022-10-19T06:18:47.544Z,16.70
2022-10-19T06:21:17.023Z,16.70
2022-10-19T06:23:44.173Z,16.70
2022-10-19T06:26:13.332Z,16.70
2022-10-19T06:28:42.153Z,16.70
2022-10-19T06:31:09.618Z,16.70
2022-10-19T06:33:36.767Z,16.70
2022-10-19T06:36:08.601Z,16.70
2022-10-19T06:38:35.425Z,16.70
2022-10-19T06:41:02.367Z,16.70
2022-10-19T06:43:29.316Z,16.70
2022-10-19T06:45:56.698Z,16.80
2022-10-19T06:48:23.959Z,16.80
2022-10-19T06:51:01.419Z,16.80
2022-10-19T06:53:29.258Z,16.80
2022-10-19T06:55:59.896Z,16.80
2022-10-19T06:58:26.839Z,16.80
2022-10-19T07:01:00.884Z,16.80
2022-10-19T07:03:29.217Z,16.80
2022-10-19T07:05:58.480Z,16.80
2022-10-19T07:08:27.148Z,16.90
2022-10-19T07:11:00.354Z,16.90
2022-10-19T07:13:28.932Z,16.90
2022-10-19T07:16:02.783Z,16.90
2022-10-19T07:18:30.032Z,17.00
2022-10-19T07:21:02.394Z,17.00
2022-10-19T07:23:32.982Z,17.00
2022-10-19T07:26:05.967Z,17.00
2022-10-19T07:28:33.223Z,17.00
2022-10-19T07:31:06.302Z,17.00
2022-10-19T07:33:33.535Z,17.10
2022-10-19T07:36:02.266Z,17.10
2022-10-19T07:38:30.462Z,17.10
2022-10-19T07:41:09.442Z,17.20
2022-10-19T07:43:36.467Z,17.20
2022-10-19T07:46:06.385Z,17.20
2022-10-19T07:48:34.287Z,17.20
2022-10-19T07:51:03.359Z,17.20
2022-10-19T07:53:30.216Z,17.20
2022-10-19T07:56:02.477Z,17.20
2022-10-19T07:58:29.250Z,17.30
2022-10-19T08:01:04.843Z,17.30
2022-10-19T08:04:14.197Z,17.30
2022-10-19T08:06:22.058Z,17.40
2022-10-19T08:08:49.932Z,17.40
2022-10-19T08:11:23.690Z,17.40
2022-10-19T08:13:50.822Z,17.50
2022-10-19T08:16:29.626Z,17.50
2022-10-19T08:18:58.782Z,17.60
2022-10-19T08:21:27.034Z,17.60
2022-10-19T08:23:53.879Z,17.60
2022-10-19T08:26:21.180Z,17.70
2022-10-19T08:28:50.925Z,17.70
2022-10-19T08:31:22.627Z,17.70
2022-10-19T08:33:50.704Z,17.70
2022-10-19T08:36:19.858Z,17.80
2022-10-19T08:38:48.547Z,17.80
2022-10-19T08:41:21.474Z,17.80
2022-10-19T08:44:21.310Z,17.80
2022-10-19T08:47:27.400Z,17.80
2022-10-19T08:49:55.415Z,17.90
2022-10-19T08:52:34.401Z,17.90
2022-10-19T08:55:16.494Z,17.90
2022-10-19T08:58:10.348Z,17.90
2022-10-19T09:00:46.783Z,18.00
2022-10-19T09:03:56.965Z,18.00
2022-10-19T09:06:45.510Z,17.90
2022-10-19T09:09:14.963Z,18.00
2022-10-19T09:11:48.735Z,18.00
2022-10-19T09:14:15.496Z,18.00
2022-10-19T09:16:42.924Z,18.10
2022-10-19T09:19:25.786Z,18.20
2022-10-19T09:21:57.096Z,18.20
2022-10-19T09:24:32.531Z,18.20
2022-10-19T09:27:01.300Z,18.20
2022-10-19T09:29:48.090Z,18.20
2022-10-19T09:32:35.995Z,18.20
2022-10-19T09:35:08.369Z,18.30
2022-10-19T09:37:43.206Z,18.30
2022-10-19T09:40:17.330Z,18.40
2022-10-19T09:42:44.552Z,18.40
2022-10-19T09:45:29.776Z,18.50
2022-10-19T09:48:00.478Z,18.50
2022-10-19T09:50:33.851Z,18.50
2022-10-19T09:53:05.094Z,18.50
2022-10-19T09:58:35.205Z,18.60
2022-10-19T10:01:03.464Z,18.70
2022-10-19T10:03:35.474Z,18.70
2022-10-19T10:06:08.510Z,18.70
2022-10-19T10:08:39.570Z,18.70
2022-10-19T10:11:22.851Z,18.70
2022-10-19T10:13:51.878Z,18.70
2022-10-19T10:16:22.338Z,18.80
2022-10-19T10:19:07.816Z,18.80
2022-10-19T10:21:47.747Z,18.80
2022-10-19T10:24:16.380Z,18.80
2022-10-19T10:26:52.721Z,18.80
2022-10-19T10:29:34.558Z,18.90
2022-10-19T10:32:19.420Z,18.90
2022-10-19T10:35:02.968Z,18.90
2022-10-19T10:37:46.902Z,19.00
2022-10-19T10:40:23.272Z,19.00
2022-10-19T10:42:53.697Z,19.00
2022-10-19T10:45:30.706Z,19.00
2022-10-19T10:47:59.866Z,19.00
2022-10-19T10:50:34.543Z,19.00
2022-10-19T10:53:07.680Z,19.10
2022-10-19T10:55:34.824Z,19.10
2022-10-19T10:58:28.186Z,19.10
2022-10-19T11:01:02.878Z,19.10
2022-10-19T11:03:33.941Z,19.20
2022-10-19T11:06:02.794Z,19.20
2022-10-19T11:09:11.449Z,19.20
2022-10-19T11:11:42.943Z,19.20
2022-10-19T11:14:28.329Z,19.20
2022-10-19T11:16:59.155Z,19.20
2022-10-19T11:19:42.334Z,19.20
2022-10-19T11:22:29.842Z,19.30
2022-10-19T11:25:11.921Z,19.40
2022-10-19T11:28:05.304Z,19.40
2022-10-19T11:30:50.526Z,19.40
2022-10-19T11:33:40.962Z,19.50
2022-10-19T11:36:33.526Z,19.60
2022-10-19T11:39:18.673Z,19.60
2022-10-19T11:41:58.768Z,19.60
2022-10-19T11:44:47.979Z,19.60
2022-10-19T11:47:37.711Z,19.60
2022-10-19T11:50:27.168Z,19.70
2022-10-19T11:53:01.935Z,19.70
2022-10-19T11:55:35.743Z,19.70
2022-10-19T11:58:37.572Z,19.70
2022-10-19T12:01:07.092Z,19.70
2022-10-19T12:03:58.179Z,19.70
2022-10-19T12:06:40.407Z,19.80
2022-10-19T12:09:24.824Z,19.80
2022-10-19T12:12:06.721Z,19.80
2022-10-19T12:14:39.102Z,19.80
2022-10-19T12:17:15.666Z,19.80
2022-10-19T12:19:50.708Z,19.80
2022-10-19T12:22:22.277Z,19.80
2022-10-19T12:24:50.957Z,19.80
2022-10-19T12:27:31.932Z,19.80
2022-10-19T12:30:05.529Z,19.90
2022-10-19T12:32:51.993Z,19.90
2022-10-19T12:35:44.742Z,19.90
2022-10-19T12:38:33.747Z,19.90
2022-10-19T12:41:39.119Z,19.90
2022-10-19T12:44:18.826Z,20.00
2022-10-19T12:46:53.003Z,20.00
2022-10-19T12:49:26.714Z,20.10
2022-10-19T12:51:55.279Z,20.10
2022-10-19T12:54:32.517Z,20.10
2022-10-19T12:57:01.632Z,20.10
2022-10-19T12:59:34.094Z,20.10
2022-10-19T13:02:02.584Z,20.20
2022-10-19T13:04:32.140Z,20.20
2022-10-19T13:07:05.745Z,20.20
2022-10-19T13:09:37.181Z,20.20
2022-10-19T13:12:19.945Z,20.30
2022-10-19T13:14:59.131Z,20.30
2022-10-19T13:17:36.602Z,20.30
2022-10-19T13:20:15.818Z,20.40
2022-10-19T13:22:47.195Z,20.30
2022-10-19T13:25:19.799Z,20.40
2022-10-19T13:27:48.668Z,20.40
2022-10-19T13:30:44.061Z,20.40
2022-10-19T13:33:25.943Z,20.40
2022-10-19T13:35:58.812Z,20.40
2022-10-19T13:38:26.726Z,20.40
2022-10-19T13:40:59.853Z,20.40
2022-10-19T13:43:38.934Z,20.40
2022-10-19T13:46:10.658Z,20.40
2022-10-19T13:48:55.745Z,20.40
2022-10-19T13:51:42.934Z,20.40
2022-10-19T13:54:43.127Z,20.40
2022-10-19T13:57:50.010Z,20.40
2022-10-19T14:00:21.099Z,20.40
2022-10-19T14:03:11.806Z,20.40
2022-10-19T14:06:13.357Z,20.40
2022-10-19T14:08:58.742Z,20.40
2022-10-19T14:11:34.425Z,20.50
2022-10-19T14:14:19.131Z,20.50
2022-10-19T14:16:48.974Z,20.50
2022-10-19T14:19:29.496Z,20.50
2022-10-19T14:22:17.134Z,20.50
2022-10-19T14:24:44.062Z,20.50
2022-10-19T14:27:18.439Z,20.50
2022-10-19T14:29:50.796Z,20.50
2022-10-19T14:32:23.475Z,20.60
2022-10-19T14:34:50.439Z,20.60
2022-10-19T14:37:20.957Z,20.50
2022-10-19T14:40:30.913Z,20.50
2022-10-19T14:42:59.739Z,20.60
2022-10-19T14:45:30.085Z,20.50
2022-10-19T14:48:04.216Z,20.60
2022-10-19T14:50:45.488Z,20.60
2022-10-19T14:53:24.420Z,20.50
2022-10-19T14:55:54.902Z,20.50
2022-10-19T14:58:23.634Z,20.50
2022-10-19T15:00:51.417Z,20.50
2022-10-19T15:03:24.449Z,20.50
2022-10-19T15:05:56.671Z,20.50
2022-10-19T15:08:37.420Z,20.50
2022-10-19T15:11:06.402Z,20.50
2022-10-19T15:13:41.763Z,20.50
2022-10-19T15:16:30.465Z,20.50
2022-10-19T15:21:46.227Z,20.50
2022-10-19T15:24:27.303Z,20.50
2022-10-19T15:27:08.617Z,20.50
2022-10-19T15:29:36.493Z,20.50
2022-10-19T15:32:21.604Z,20.60
2022-10-19T15:34:48.581Z,20.50
2022-10-19T15:37:21.559Z,20.50
2022-10-19T15:39:49.371Z,20.50
2022-10-19T15:42:22.287Z,20.50
2022-10-19T15:44:49.133Z,20.50
2022-10-19T15:47:15.929Z,20.50
2022-10-19T15:49:42.733Z,20.50
2022-10-19T15:52:33.800Z,20.50
2022-10-19T15:55:01.733Z,20.50
2022-10-19T15:57:31.974Z,20.50
2022-10-19T16:00:02.014Z,20.50
2022-10-19T16:02:28.885Z,20.50
2022-10-19T16:04:55.940Z,20.50
2022-10-19T16:07:32.711Z,20.50
2022-10-19T16:09:59.784Z,20.50
2022-10-19T16:12:27.197Z,20.40
2022-10-19T16:14:54.857Z,20.40
2022-10-19T16:17:22.087Z,20.40
2022-10-19T16:19:48.929Z,20.40
2022-10-19T16:22:16.796Z,20.40
2022-10-19T16:24:43.656Z,20.40
2022-10-19T16:27:15.155Z,20.40
2022-10-19T16:29:43.098Z,20.40
2022-10-19T16:32:10.061Z,20.40
2022-10-19T16:34:36.908Z,20.40
2022-10-19T16:37:06.681Z,20.40
2022-10-19T16:39:34.416Z,20.30
2022-10-19T16:42:01.210Z,20.30
2022-10-19T16:44:28.086Z,20.40
2022-10-19T16:46:57.479Z,20.30
2022-10-19T16:49:24.565Z,20.30
2022-10-19T16:51:54.770Z,20.30
2022-10-19T16:54:25.852Z,20.30
2022-10-19T16:56:52.901Z,20.20
2022-10-19T16:59:19.773Z,20.20
2022-10-19T17:01:47.295Z,20.20
2022-10-19T17:04:15.894Z,20.20
2022-10-19T17:06:42.694Z,20.20
2022-10-19T17:11:56.554Z,20.20
2022-10-19T17:14:23.359Z,20.10
2022-10-19T17:16:50.152Z,20.10
2022-10-19T17:19:16.990Z,20.10
2022-10-19T17:21:43.958Z,20.10
2022-10-19T17:24:20.367Z,20.10
2022-10-19T17:26:50.465Z,20.10
2022-10-19T17:29:17.276Z,20.00
2022-10-19T17:31:44.235Z,20.00
2022-10-19T17:34:11.692Z,20.00
2022-10-19T17:36:41.833Z,20.00
2022-10-19T17:39:12.319Z,19.90
2022-10-19T17:41:39.133Z,19.90
2022-10-19T17:44:06.026Z,19.90
2022-10-19T17:46:34.675Z,19.90
2022-10-19T17:49:01.832Z,19.90
2022-10-19T17:51:30.664Z,19.90
2022-10-19T17:54:00.172Z,19.90
2022-10-19T17:56:28.135Z,19.90
2022-10-19T17:58:56.387Z,19.90
2022-10-19T18:01:24.538Z,19.80
2022-10-19T18:03:51.362Z,19.80
2022-10-19T18:06:27.148Z,19.80
2022-10-19T18:08:55.836Z,19.80
2022-10-19T18:11:24.428Z,19.80
2022-10-19T18:13:53.011Z,19.80
2022-10-19T18:16:26.944Z,19.80
2022-10-19T18:18:56.528Z,19.80
2022-10-19T18:21:25.868Z,19.80
2022-10-19T18:23:55.144Z,19.80
2022-10-19T18:26:25.748Z,19.70
2022-10-19T18:28:54.087Z,19.70
2022-10-19T18:31:21.085Z,19.70
2022-10-19T18:33:49.944Z,19.70
2022-10-19T18:36:16.784Z,19.70
2022-10-19T18:38:43.623Z,19.70
2022-10-19T18:44:05.076Z,19.60
2022-10-19T18:46:36.850Z,19.70
2022-10-19T18:49:06.846Z,19.60
2022-10-19T18:51:33.863Z,19.60
2022-10-19T18:54:00.926Z,19.60
2022-10-19T18:56:29.516Z,19.60
2022-10-19T18:58:57.126Z,19.50
2022-10-19T19:01:26.961Z,19.50
2022-10-19T19:03:56.490Z,19.50
2022-10-19T19:06:23.415Z,19.50
2022-10-19T19:08:50.427Z,19.50
2022-10-19T19:11:23.193Z,19.50
2022-10-19T19:13:53.382Z,19.50
2022-10-19T19:16:20.860Z,19.50
2022-10-19T19:18:48.391Z,19.50
2022-10-19T19:21:17.739Z,19.40
2022-10-19T19:23:45.208Z,19.40
2022-10-19T19:26:13.106Z,19.40
2022-10-19T19:28:41.892Z,19.40
2022-10-19T19:31:11.577Z,19.40
2022-10-19T19:33:38.987Z,19.40
2022-10-19T19:36:08.035Z,19.40
2022-10-19T19:38:36.267Z,19.40
2022-10-19T19:41:07.987Z,19.40
2022-10-19T19:43:37.173Z,19.30
2022-10-19T19:46:09.531Z,19.30
2022-10-19T19:48:40.931Z,19.30
2022-10-19T19:51:09.967Z,19.30
2022-10-19T19:53:38.240Z,19.30
2022-10-19T19:56:07.957Z,19.30
2022-10-19T19:58:35.061Z,19.30
2022-10-19T20:01:18.564Z,19.30
2022-10-19T20:03:46.436Z,19.20
2022-10-19T20:06:15.023Z,19.30
2022-10-19T20:08:42.215Z,19.20
2022-10-19T20:11:12.007Z,19.20
2022-10-19T20:13:39.388Z,19.20
2022-10-19T20:16:12.697Z,19.20
2022-10-19T20:18:44.385Z,19.20
2022-10-19T20:21:11.239Z,19.20
2022-10-19T20:23:38.839Z,19.20
2022-10-19T20:26:06.019Z,19.20
2022-10-19T20:28:33.504Z,19.20
2022-10-19T20:31:06.581Z,19.10
2022-10-19T20:33:35.912Z,19.10
2022-10-19T20:36:16.859Z,19.10
2022-10-19T20:38:50.095Z,19.20
2022-10-19T20:41:18.104Z,19.10
2022-10-19T20:43:44.942Z,19.10
2022-10-19T20:46:15.113Z,19.10
2022-10-19T20:48:42.229Z,19.10
2022-10-19T20:51:17.926Z,19.10
2022-10-19T20:53:46.510Z,19.10
2022-10-19T20:56:15.544Z,19.10
2022-10-19T20:58:43.771Z,19.10
2022-10-19T21:01:15.222Z,19.00
2022-10-19T21:03:47.337Z,19.00
2022-10-19T21:06:14.733Z,19.10
2022-10-19T21:08:41.661Z,19.00
2022-10-19T21:11:19.221Z,19.00
2022-10-19T21:13:47.180Z,19.00
2022-10-19T21:16:19.129Z,19.00
2022-10-19T21:18:47.768Z,19.00
2022-10-19T21:21:20.584Z,19.00
2022-10-19T21:23:51.357Z,19.00
2022-10-19T21:26:18.158Z,19.00
2022-10-19T21:28:49.310Z,19.00
2022-10-19T21:31:17.423Z,19.00
2022-10-19T21:33:44.681Z,19.00
2022-10-19T21:36:13.013Z,19.00
2022-10-19T21:38:40.296Z,19.00
2022-10-19T21:41:15.778Z,18.90
2022-10-19T21:43:42.817Z,18.90
2022-10-19T21:46:13.691Z,18.90
2022-10-19T21:48:40.737Z,18.90
2022-10-19T21:51:32.097Z,18.90
2022-10-19T21:53:59.132Z,18.80
2022-10-19T21:56:26.352Z,18.90
2022-10-19T21:58:54.445Z,18.80
2022-10-19T22:01:24.285Z,18.90
2022-10-19T22:03:59.023Z,18.80
2022-10-19T22:06:28.397Z,18.80
2022-10-19T22:08:56.066Z,18.80
2022-10-19T22:11:23.510Z,18.70
2022-10-19T22:13:54.377Z,18.70
2022-10-19T22:16:21.336Z,18.70
2022-10-19T22:18:48.943Z,18.70
2022-10-19T22:21:21.887Z,18.70
2022-10-19T22:23:57.218Z,18.80
2022-10-19T22:26:27.318Z,18.70
2022-10-19T22:28:56.908Z,18.70
2022-10-19T22:31:25.254Z,18.70
2022-10-19T22:33:52.066Z,18.70
2022-10-19T22:36:19.131Z,18.70
2022-10-19T22:38:46.167Z,18.70
2022-10-19T22:42:09.037Z,18.70
2022-10-19T22:44:35.870Z,18.70
2022-10-19T22:47:02.672Z,18.60
2022-10-19T22:49:29.478Z,18.60
2022-10-19T22:51:56.252Z,18.60
2022-10-19T22:54:23.046Z,18.60
2022-10-19T22:56:49.896Z,18.50
2022-10-19T22:59:16.741Z,18.50
2022-10-19T23:01:43.593Z,18.50
2022-10-19T23:04:10.492Z,18.50
2022-10-19T23:06:37.308Z,18.50
2022-10-19T23:09:04.300Z,18.50
2022-10-19T23:11:31.168Z,18.50
2022-10-19T23:13:58.171Z,18.40
2022-10-19T23:16:25.091Z,18.50
2022-10-19T23:18:51.917Z,18.40
2022-10-19T23:21:18.839Z,18.40
2022-10-19T23:23:45.675Z,18.40
2022-10-19T23:26:18.029Z,18.50
2022-10-19T23:28:46.703Z,18.50
2022-10-19T23:31:20.977Z,18.50
2022-10-19T23:33:47.871Z,18.50
2022-10-19T23:36:18.763Z,18.50
2022-10-19T23:38:47.119Z,18.50
2022-10-19T23:41:14.294Z,18.50
2022-10-19T23:43:41.664Z,18.50
2022-10-19T23:46:08.843Z,18.50
2022-10-19T23:48:36.462Z,18.40
2022-10-19T23:51:09.711Z,18.40
2022-10-19T23:53:40.804Z,18.40
2022-10-19T23:56:11.976Z,18.40
2022-10-19T23:58:38.853Z,18.40
